createdAt,value
2023-02-26T00:01:48.168Z,0
2023-02-26T00:06:48.132Z,0
2023-02-26T00:11:48.149Z,0
2023-02-26T00:16:48.216Z,0
2023-02-26T00:21:48.127Z,0
2023-02-26T00:26:48.140Z,0
2023-02-26T00:31:48.258Z,0
2023-02-26T00:36:48.126Z,0
2023-02-26T00:41:48.103Z,0
2023-02-26T00:46:48.124Z,0
2023-02-26T00:51:48.107Z,0
2023-02-26T00:56:48.136Z,0
2023-02-26T01:01:48.156Z,0
2023-02-26T01:06:48.126Z,0
2023-02-26T01:11:48.096Z,0
2023-02-26T01:16:48.106Z,0
2023-02-26T01:21:48.112Z,0
2023-02-26T01:26:48.094Z,0
2023-02-26T01:31:48.290Z,0
2023-02-26T01:36:48.098Z,0
2023-02-26T01:41:48.119Z,0
2023-02-26T01:46:48.160Z,0
2023-02-26T01:51:48.060Z,0
2023-02-26T01:56:48.095Z,0
2023-02-26T02:01:48.094Z,0
2023-02-26T02:06:48.053Z,0
2023-02-26T02:11:48.079Z,0
2023-02-26T02:16:48.189Z,0
2023-02-26T02:21:48.059Z,0
2023-02-26T02:26:48.085Z,0
2023-02-26T02:31:48.202Z,0
2023-02-26T02:36:48.094Z,0
2023-02-26T02:41:48.025Z,0
2023-02-26T02:46:48.112Z,0
2023-02-26T02:51:48.062Z,0
2023-02-26T02:56:48.065Z,0
2023-02-26T03:01:48.029Z,0
2023-02-26T03:06:48.045Z,0
2023-02-26T03:11:48.069Z,0
2023-02-26T03:16:48.098Z,0
2023-02-26T03:21:48.050Z,0
2023-02-26T03:26:47.995Z,0
2023-02-26T03:31:48.151Z,0
2023-02-26T03:36:48.040Z,0
2023-02-26T03:41:48.039Z,0
2023-02-26T03:46:47.989Z,0
2023-02-26T03:51:48.003Z,0
2023-02-26T03:56:48.190Z,0
2023-02-26T04:01:48.021Z,0
2023-02-26T04:06:48.008Z,0
2023-02-26T04:11:48.233Z,0
2023-02-26T04:16:49.211Z,0
2023-02-26T04:21:49.045Z,0
2023-02-26T04:26:49.006Z,0
2023-02-26T04:31:49.132Z,0
2023-02-26T04:36:49.022Z,0
2023-02-26T04:41:49.008Z,0
2023-02-26T04:46:48.984Z,0
2023-02-26T04:51:48.993Z,0
2023-02-26T04:56:49.149Z,0
2023-02-26T05:01:49.050Z,0
2023-02-26T05:06:48.970Z,0
2023-02-26T05:11:48.998Z,0
2023-02-26T05:16:49.006Z,0
2023-02-26T05:21:48.994Z,0
2023-02-26T05:26:48.988Z,0
2023-02-26T05:31:49.077Z,0
2023-02-26T05:36:49.013Z,0
2023-02-26T05:41:48.944Z,0
2023-02-26T05:46:48.956Z,0
2023-02-26T05:51:49.097Z,0
2023-02-26T05:56:48.979Z,0
2023-02-26T06:01:48.953Z,0
2023-02-26T06:06:48.953Z,0
2023-02-26T06:11:48.950Z,0
2023-02-26T06:16:48.980Z,0
2023-02-26T06:21:48.929Z,2
2023-02-26T06:26:48.905Z,2
2023-02-26T06:31:49.002Z,6
2023-02-26T06:36:48.994Z,8
2023-02-26T06:41:48.937Z,9
2023-02-26T06:46:48.961Z,14
2023-02-26T06:51:48.911Z,15
2023-02-26T06:56:48.966Z,13
2023-02-26T07:01:48.902Z,13
2023-02-26T07:06:48.930Z,19
2023-02-26T07:11:48.893Z,49
2023-02-26T07:16:49.055Z,98
2023-02-26T07:21:48.892Z,122
2023-02-26T07:26:48.885Z,135
2023-02-26T07:31:49.064Z,129
2023-02-26T07:36:48.924Z,124
2023-02-26T07:41:48.956Z,96
2023-02-26T07:46:48.890Z,71
2023-02-26T07:51:48.858Z,29
2023-02-26T07:56:48.888Z,26
2023-02-26T08:01:48.946Z,27
2023-02-26T08:06:48.899Z,141
2023-02-26T08:11:48.877Z,164
2023-02-26T08:16:48.902Z,31
2023-02-26T08:21:50.611Z,155
2023-02-26T08:26:48.896Z,212
2023-02-26T08:31:48.997Z,463
2023-02-26T08:36:48.874Z,483
2023-02-26T08:41:48.898Z,506
2023-02-26T08:46:48.958Z,528
2023-02-26T08:51:48.835Z,547
2023-02-26T08:56:48.876Z,563
2023-02-26T09:01:48.881Z,579
2023-02-26T09:06:48.857Z,599
2023-02-26T09:11:48.835Z,618
2023-02-26T09:16:51.072Z,633
2023-02-26T09:21:48.831Z,649
2023-02-26T09:26:48.825Z,622
2023-02-26T09:31:49.006Z,629
2023-02-26T09:36:48.869Z,642
2023-02-26T09:41:48.823Z,653
2023-02-26T09:46:48.848Z,663
2023-02-26T09:51:50.170Z,667
2023-02-26T09:56:48.831Z,673
2023-02-26T10:01:48.879Z,660
2023-02-26T10:06:48.796Z,692
2023-02-26T10:11:48.812Z,700
2023-02-26T10:16:48.849Z,721
2023-02-26T10:21:48.797Z,701
2023-02-26T10:26:48.804Z,667
2023-02-26T10:31:48.841Z,365
2023-02-26T10:36:48.854Z,146
2023-02-26T10:41:48.794Z,586
2023-02-26T10:46:48.791Z,366
2023-02-26T10:51:48.840Z,178
2023-02-26T10:56:48.820Z,197
2023-02-26T11:01:48.782Z,135
2023-02-26T11:06:48.785Z,120
2023-02-26T11:11:48.803Z,453
2023-02-26T11:16:48.797Z,158
2023-02-26T11:21:48.769Z,624
2023-02-26T11:26:48.762Z,454
2023-02-26T11:31:48.944Z,210
2023-02-26T11:36:48.829Z,196
2023-02-26T11:41:48.802Z,633
2023-02-26T11:46:48.774Z,650
2023-02-26T11:51:48.785Z,238
2023-02-26T11:56:48.798Z,253
2023-02-26T12:01:48.796Z,201
2023-02-26T12:06:48.782Z,155
2023-02-26T12:11:48.761Z,150
2023-02-26T12:16:48.766Z,96
2023-02-26T12:21:48.752Z,110
2023-02-26T12:26:48.763Z,140
2023-02-26T12:31:48.885Z,548
2023-02-26T12:36:49.831Z,639
2023-02-26T12:41:48.780Z,834
2023-02-26T12:46:48.796Z,445
2023-02-26T12:51:48.764Z,527
2023-02-26T12:56:48.769Z,423
2023-02-26T13:02:00.318Z,589
2023-02-26T13:06:49.003Z,398
2023-02-26T13:11:48.968Z,515
2023-02-26T13:16:49.037Z,695
2023-02-26T13:21:49.005Z,366
2023-02-26T13:26:48.984Z,129
2023-02-26T13:31:49.058Z,460
2023-02-26T13:36:49.051Z,652
2023-02-26T13:41:48.984Z,630
2023-02-26T13:46:48.993Z,623
2023-02-26T13:51:48.981Z,290
2023-02-26T13:56:49.001Z,415
2023-02-26T14:01:49.007Z,601
2023-02-26T14:06:48.988Z,598
2023-02-26T14:11:48.980Z,569
2023-02-26T14:16:49.045Z,563
2023-02-26T14:21:48.966Z,529
2023-02-26T14:26:49.233Z,504
2023-02-26T14:31:49.438Z,459
2023-02-26T14:36:49.209Z,399
2023-02-26T14:41:49.265Z,344
2023-02-26T14:46:49.204Z,278
2023-02-26T14:51:49.868Z,231
2023-02-26T14:56:49.745Z,186
2023-02-26T15:01:49.768Z,164
2023-02-26T15:06:49.688Z,167
2023-02-26T15:11:49.712Z,157
2023-02-26T15:16:49.744Z,140
2023-02-26T15:21:49.701Z,92
2023-02-26T15:26:49.688Z,66
2023-02-26T15:31:49.858Z,54
2023-02-26T15:36:51.481Z,33
2023-02-26T15:41:49.725Z,25
2023-02-26T15:46:49.740Z,25
2023-02-26T15:51:49.696Z,24
2023-02-26T15:56:49.713Z,30
2023-02-26T16:01:49.721Z,43
2023-02-26T16:06:49.681Z,41
2023-02-26T16:11:49.694Z,31
2023-02-26T16:16:49.758Z,13
2023-02-26T16:21:49.694Z,14
2023-02-26T16:26:49.670Z,11
2023-02-26T16:31:49.869Z,11
2023-02-26T16:36:49.695Z,16
2023-02-26T16:41:49.603Z,8
2023-02-26T16:46:49.661Z,4
2023-02-26T16:51:49.664Z,1
2023-02-26T16:56:49.687Z,0
2023-02-26T17:01:49.664Z,0
2023-02-26T17:06:49.617Z,0
2023-02-26T17:11:49.659Z,0
2023-02-26T17:16:49.696Z,0
2023-02-26T17:21:49.647Z,0
2023-02-26T17:26:49.624Z,0
2023-02-26T17:31:49.919Z,0
2023-02-26T17:36:49.970Z,0
2023-02-26T17:41:49.882Z,0
2023-02-26T17:46:49.884Z,0
2023-02-26T17:51:50.117Z,0
2023-02-26T17:56:50.167Z,0
2023-02-26T18:01:50.171Z,0
2023-02-26T18:06:50.126Z,0
2023-02-26T18:11:50.148Z,0
2023-02-26T18:16:50.210Z,0
2023-02-26T18:21:50.106Z,0
2023-02-26T18:26:50.127Z,0
2023-02-26T18:31:50.292Z,0
2023-02-26T18:36:50.169Z,0
2023-02-26T18:41:50.125Z,0
2023-02-26T18:46:50.082Z,0
2023-02-26T18:51:50.115Z,0
2023-02-26T18:56:50.133Z,0
2023-02-26T19:01:50.206Z,0
2023-02-26T19:06:50.146Z,0
2023-02-26T19:11:50.068Z,0
2023-02-26T19:16:50.126Z,0
2023-02-26T19:21:50.102Z,0
2023-02-26T19:26:50.098Z,0
2023-02-26T19:31:50.210Z,0
2023-02-26T19:36:50.092Z,0
2023-02-26T19:41:50.065Z,0
2023-02-26T19:46:50.064Z,0
2023-02-26T19:51:51.041Z,0
2023-02-26T19:56:51.082Z,0
2023-02-26T20:01:51.149Z,0
2023-02-26T20:06:51.060Z,0
2023-02-26T20:11:51.039Z,0
2023-02-26T20:16:51.084Z,0
2023-02-26T20:21:51.025Z,0
2023-02-26T20:26:51.034Z,0
2023-02-26T20:31:51.221Z,0
2023-02-26T20:36:51.084Z,0
2023-02-26T20:41:51.046Z,0
2023-02-26T20:46:51.084Z,0
2023-02-26T20:51:51.023Z,0
2023-02-26T20:56:51.018Z,0
2023-02-26T21:01:51.023Z,0
2023-02-26T21:06:51.008Z,0
2023-02-26T21:11:51.024Z,0
2023-02-26T21:16:51.037Z,0
2023-02-26T21:21:51.007Z,0
2023-02-26T21:26:51.004Z,0
2023-02-26T21:31:51.096Z,0
2023-02-26T21:36:51.008Z,0
2023-02-26T21:41:50.964Z,0
2023-02-26T21:46:50.981Z,0
2023-02-26T21:51:51.016Z,0
2023-02-26T21:56:50.991Z,0
2023-02-26T22:01:50.970Z,0
2023-02-26T22:06:51.023Z,0
2023-02-26T22:11:50.948Z,0
2023-02-26T22:16:51.069Z,0
2023-02-26T22:21:51.182Z,0
2023-02-26T22:26:51.208Z,0
2023-02-26T22:31:51.299Z,0
2023-02-26T22:36:51.241Z,0
2023-02-26T22:41:51.215Z,0
2023-02-26T22:46:51.219Z,0
2023-02-26T22:51:51.200Z,0
2023-02-26T22:56:51.224Z,0
2023-02-26T23:01:51.249Z,0
2023-02-26T23:06:51.195Z,0
2023-02-26T23:11:51.215Z,0
2023-02-26T23:16:51.261Z,0
2023-02-26T23:21:51.170Z,0
2023-02-26T23:26:51.201Z,0
2023-02-26T23:31:51.369Z,0
2023-02-26T23:36:51.184Z,0
2023-02-26T23:41:51.179Z,0
2023-02-26T23:46:51.166Z,0
2023-02-26T23:51:51.154Z,0
2023-02-26T23:56:51.204Z,0
